Flower, West Virginia
Current Conditions -  °F | °C
As of 9:15 PM on Saturday 22 Nov 2014 (Local Time) from KW22 Reporting Station
Few Clouds Few Clouds  
Wind Chill: 46°   Ceiling: Unl
Heat Index: 48°   Visibility: 10mi
Dew Point: 25°   Wind: 6mph
Humidity: 40%   Direction: 180°S
Pressure: 30.17"   Gusts: NA
Location:  38.837°N, 80.8415°W
Report Text: KW22 230215Z AUTO 18005KT 10SM FEW095 09/M04 A3017 RMK AO2
Loading
Personal Weather Stations






























Interactive Weather Map New forecast layout! Learn more

10-Day Weather Forecast

Advertisements
Track Severe Weather on mobile